Time;durP1;ratioP1;P1;durP2;ratioP2;P2;SDS_P1;SDS_P2;PMS_P1;PMS_P2;Temp;Humidity;BMP_temperature;BMP_pressure;BME280_temperature;BME280_humidity;BME280_pressure;Samples;Min_cycle;Max_cycle;Signal;HPM_P1;HPM_P2
2022/04/26 03:36:35;;;;;;;3.70;1.88;;;15.70;52.00;;;;;;5035593;28;20482;-72
2022/04/26 03:39:02;;;;;;;2.65;1.77;;;15.70;57.20;;;;;;5036111;28;20053;-72
2022/04/26 03:41:29;;;;;;;3.40;2.10;;;;;;;;;;5036153;28;20055;-72
2022/04/26 03:43:55;;;;;;;2.80;1.98;;;15.20;56.80;;;;;;5036270;28;20053;-72
2022/04/26 03:46:22;;;;;;;2.78;2.00;;;15.60;57.30;;;;;;5033872;28;20490;-72
2022/04/26 03:48:50;;;;;;;3.40;1.80;;;15.60;57.10;;;;;;5049902;28;20044;-72
2022/04/26 03:51:17;;;;;;;4.28;1.90;;;;;;;;;;5035800;28;20131;-72
2022/04/26 03:53:46;;;;;;;2.60;1.92;;;;;;;;;;5036095;28;20693;-72
2022/04/26 03:56:13;;;;;;;2.85;1.85;;;;;;;;;;5035993;28;20065;-72
2022/04/26 03:58:40;;;;;;;4.68;2.40;;;15.20;57.10;;;;;;5036066;28;20386;-72
2022/04/26 04:01:06;;;;;;;3.10;1.90;;;15.60;57.30;;;;;;5034953;28;20047;-72
2022/04/26 04:03:33;;;;;;;3.05;1.92;;;15.40;51.40;;;;;;5036016;28;20059;-72
2022/04/26 04:06:01;;;;;;;2.80;1.98;;;15.50;56.90;;;;;;5035510;28;20405;-72
2022/04/26 04:08:28;;;;;;;2.47;2.00;;;15.50;57.00;;;;;;5035686;28;20135;-72
2022/04/26 04:10:55;;;;;;;4.53;2.10;;;;;;;;;;5035425;28;20055;-72
2022/04/26 04:13:22;;;;;;;2.60;2.03;;;15.50;57.00;;;;;;5053312;28;20489;-72
2022/04/26 04:15:49;;;;;;;2.58;1.83;;;15.50;57.30;;;;;;5034043;28;20067;-72
2022/04/26 04:21:01;;;;;;;5.30;2.00;;;15.40;57.30;;;;;;4995749;28;20085;-72
2022/04/26 04:23:28;;;;;;;2.60;1.80;;;15.50;57.30;;;;;;4996188;28;20054;-72
2022/04/26 04:25:54;;;;;;;3.00;1.98;;;15.60;57.50;;;;;;4996093;28;20503;-72
2022/04/26 04:28:21;;;;;;;2.97;2.10;;;15.50;57.50;;;;;;4995768;28;20053;-72
2022/04/26 04:30:48;;;;;;;3.88;2.10;;;15.70;57.60;;;;;;4995667;28;20491;-72
2022/04/26 04:33:15;;;;;;;3.17;2.00;;;15.50;57.10;;;;;;5016836;28;20053;-72
2022/04/26 04:35:42;;;;;;;4.47;2.28;;;15.60;57.50;;;;;;5035179;28;20049;-72
2022/04/26 04:38:10;;;;;;;3.90;2.00;;;15.60;57.10;;;;;;5035306;28;20044;-72
2022/04/26 04:40:37;;;;;;;2.50;1.80;;;15.60;57.10;;;;;;5035142;28;20048;-72
2022/04/26 04:43:03;;;;;;;3.03;1.88;;;15.30;57.00;;;;;;5035056;28;20044;-72
2022/04/26 04:45:30;;;;;;;3.70;2.00;;;;;;;;;;5052553;28;20057;-72
2022/04/26 04:47:57;;;;;;;3.17;1.80;;;15.50;57.10;;;;;;5034856;28;20052;-72
2022/04/26 04:50:24;;;;;;;3.00;2.03;;;15.30;56.80;;;;;;5034472;28;20048;-72
2022/04/26 04:52:50;;;;;;;3.22;1.90;;;15.40;57.30;;;;;;5034937;28;20057;-72
2022/04/26 04:55:18;;;;;;;4.05;2.08;;;15.50;57.10;;;;;;5052876;28;20052;-72
2022/04/26 04:57:45;;;;;;;2.45;2.03;;;15.60;57.10;;;;;;5034618;28;20049;-72
2022/04/26 05:00:13;;;;;;;2.28;1.75;;;15.60;57.10;;;;;;5034790;28;20053;-72
2022/04/26 05:02:39;;;;;;;3.22;1.85;;;15.00;56.70;;;;;;5034705;28;20065;-72
2022/04/26 05:05:07;;;;;;;3.95;1.98;;;15.50;54.60;;;;;;5043821;28;20392;-72
2022/04/26 05:07:33;;;;;;;3.20;1.88;;;15.60;57.20;;;;;;5014978;28;20083;-72
2022/04/26 05:10:00;;;;;;;3.95;2.00;;;15.20;56.70;;;;;;5014813;28;20053;-72
2022/04/26 05:12:28;;;;;;;2.88;1.80;;;15.20;54.70;;;;;;5014788;28;20052;-72
2022/04/26 05:14:55;;;;;;;2.67;2.00;;;15.70;57.00;;;;;;5014856;28;20057;-72
2022/04/26 05:17:21;;;;;;;2.95;1.83;;;15.10;54.70;;;;;;5014723;28;20478;-72
2022/04/26 05:19:48;;;;;;;3.38;1.80;;;15.60;56.90;;;;;;5014752;28;20053;-72
2022/04/26 05:22:15;;;;;;;2.95;2.10;;;15.70;57.30;;;;;;5033245;28;20123;-72
2022/04/26 05:24:53;;;;;;;3.08;1.90;;;15.50;57.20;;;;;;5034150;28;20056;-72
2022/04/26 05:27:20;;;;;;;3.33;2.00;;;15.30;53.50;;;;;;5034388;28;20490;-71
2022/04/26 05:29:48;;;;;;;3.58;1.92;;;15.60;57.00;;;;;;5033966;28;20417;-72
2022/04/26 05:32:15;;;;;;;2.97;1.90;;;;;;;;;;5034064;28;20053;-72
2022/04/26 05:34:42;;;;;;;3.40;2.10;;;;;;;;;;5034287;28;20055;-72
2022/04/26 05:37:09;;;;;;;3.30;2.00;;;;;;;;;;5033690;28;20064;-72
2022/04/26 05:39:36;;;;;;;3.13;1.90;;;;;;;;;;5034219;28;20063;-72
2022/04/26 05:42:03;;;;;;;3.08;1.80;;;15.10;56.60;;;;;;5033998;28;20057;-72
2022/04/26 05:44:30;;;;;;;2.95;1.92;;;15.00;56.60;;;;;;5034061;28;20055;-72
2022/04/26 05:46:58;;;;;;;2.72;1.80;;;15.60;57.20;;;;;;5033871;28;20055;-72
2022/04/26 05:49:25;;;;;;;3.60;2.00;;;15.50;57.30;;;;;;5034089;28;20141;-72
2022/04/26 05:51:51;;;;;;;3.30;1.98;;;15.60;57.30;;;;;;5034047;28;20408;-69
2022/04/26 05:54:18;;;;;;;3.97;1.70;;;;;;;;;;5020576;28;20053;-71
2022/04/26 05:56:45;;;;;;;2.95;1.88;;;15.70;57.00;;;;;;5031550;28;20053;-70
2022/04/26 05:59:12;;;;;;;3.15;2.03;;;15.50;57.20;;;;;;5014286;28;20059;-69
2022/04/26 06:01:38;;;;;;;2.63;1.95;;;15.60;56.90;;;;;;5020140;28;20041;-70
2022/04/26 06:04:06;;;;;;;3.58;1.80;;;15.20;56.90;;;;;;5038208;28;20441;-70
2022/04/26 06:06:33;;;;;;;3.85;2.00;;;15.60;56.90;;;;;;5015914;28;20046;-70
2022/04/26 06:09:00;;;;;;;2.22;1.73;;;15.80;57.40;;;;;;5021719;28;20049;-70
2022/04/26 06:11:27;;;;;;;2.90;1.80;;;15.80;52.40;;;;;;5039423;28;20055;-70
2022/04/26 06:13:53;;;;;;;3.28;1.80;;;16.50;57.60;;;;;;5038126;28;20045;-70
2022/04/26 06:16:20;;;;;;;3.67;1.75;;;15.70;56.80;;;;;;5020552;28;20204;-69
2022/04/26 06:18:47;;;;;;;2.42;1.70;;;;;;;;;;5037900;28;20518;-70
2022/04/26 06:21:15;;;;;;;2.72;1.60;;;16.70;57.30;;;;;;5020446;28;20046;-70
2022/04/26 06:23:42;;;;;;;2.10;1.60;;;15.40;56.70;;;;;;5037941;28;20445;-71
2022/04/26 06:26:09;;;;;;;2.60;1.80;;;15.20;56.40;;;;;;5038951;28;20065;-71
2022/04/26 06:28:35;;;;;;;4.20;1.80;;;15.90;56.40;;;;;;5020061;28;20049;-70
2022/04/26 06:31:02;;;;;;;2.55;1.58;;;15.90;56.80;;;;;;5019760;28;20049;-70
2022/04/26 06:33:29;;;;;;;2.47;1.65;;;16.80;56.90;;;;;;5020181;28;20537;-70
2022/04/26 06:35:55;;;;;;;3.55;1.90;;;15.50;55.60;;;;;;5019570;28;20077;-70
2022/04/26 06:38:23;;;;;;;2.55;1.60;;;16.10;56.60;;;;;;5027040;28;20406;-70
2022/04/26 06:40:51;;;;;;;2.10;1.60;;;15.30;56.10;;;;;;5036389;28;20052;-71
2022/04/26 06:43:18;;;;;;;2.50;1.55;;;16.00;56.40;;;;;;5045298;28;20505;-70
2022/04/26 06:45:46;;;;;;;2.40;1.50;;;;;;;;;;5040206;28;20057;-69
2022/04/26 06:48:12;;;;;;;2.85;1.80;;;16.60;56.70;;;;;;5040010;28;20080;-72
2022/04/26 06:50:39;;;;;;;3.25;1.90;;;16.10;56.10;;;;;;5016494;28;20056;-71
2022/04/26 06:53:06;;;;;;;2.70;1.70;;;15.70;56.00;;;;;;5018855;28;20060;-72
2022/04/26 06:55:34;;;;;;;3.42;1.80;;;16.30;56.20;;;;;;5027891;28;20103;-71
2022/04/26 06:58:01;;;;;;;3.47;2.08;;;15.40;55.70;;;;;;5023093;28;20139;-73
2022/04/26 07:00:28;;;;;;;2.95;1.88;;;;;;;;;;5020186;28;20057;-71
2022/04/26 07:02:55;;;;;;;3.75;2.05;;;16.30;56.30;;;;;;5019913;28;20111;-71
2022/04/26 07:05:22;;;;;;;3.28;1.70;;;16.40;56.40;;;;;;5053091;28;20053;-71
2022/04/26 07:07:49;;;;;;;3.38;1.63;;;16.50;55.90;;;;;;5020317;28;20132;-72
2022/04/26 07:10:16;;;;;;;3.08;1.98;;;;;;;;;;5019747;28;20060;-72
2022/04/26 07:12:44;;;;;;;4.45;1.90;;;16.60;55.90;;;;;;5017545;28;20128;-72
2022/04/26 07:15:11;;;;;;;2.83;1.80;;;16.50;56.00;;;;;;5035670;28;20046;-73
2022/04/26 07:17:39;;;;;;;4.50;1.75;;;16.60;55.70;;;;;;5016570;28;20076;-73
2022/04/26 07:20:08;;;;;;;3.22;1.63;;;15.60;55.20;;;;;;5016207;28;20064;-73
2022/04/26 07:22:34;;;;;;;2.30;1.60;;;16.60;52.10;;;;;;5014682;28;20133;-73
2022/04/26 07:25:01;;;;;;;2.65;1.60;;;16.50;55.60;;;;;;5016648;28;20092;-73
2022/04/26 07:27:28;;;;;;;2.28;1.67;;;16.00;55.40;;;;;;5016742;28;20053;-73
2022/04/26 07:29:56;;;;;;;3.17;1.70;;;16.70;49.50;;;;;;5017485;28;20064;-73
2022/04/26 07:34:20;;;;;;;2.00;1.60;;;;;;;;;;5016059;28;20060;-73
2022/04/26 07:35:10;;;;;;;2.33;1.60;;;16.70;55.40;;;;;;5014509;28;20053;-73
2022/04/26 07:37:37;;;;;;;3.15;2.22;;;15.90;50.80;;;;;;5016156;28;20049;-73
2022/04/26 07:40:04;;;;;;;2.45;1.75;;;16.90;55.30;;;;;;5016179;28;20053;-73
2022/04/26 07:42:31;;;;;;;3.17;1.67;;;16.80;55.60;;;;;;5015791;28;20057;-72
2022/04/26 07:44:59;;;;;;;2.60;1.90;;;17.30;55.90;;;;;;5017150;28;20063;-73
2022/04/26 07:47:26;;;;;;;3.22;1.60;;;17.00;55.60;;;;;;5016758;28;20059;-73
2022/04/26 07:49:53;;;;;;;3.42;1.67;;;16.90;49.70;;;;;;5016184;28;20128;-72
2022/04/26 07:52:20;;;;;;;3.08;1.80;;;17.00;55.60;;;;;;5016150;28;20045;-73
2022/04/26 07:54:48;;;;;;;2.83;1.70;;;;;;;;;;5016110;28;20057;-73
2022/04/26 07:57:14;;;;;;;3.45;1.70;;;17.10;55.20;;;;;;5033960;28;20490;-72
2022/04/26 07:59:41;;;;;;;3.25;2.00;;;16.20;55.30;;;;;;5027591;28;20054;-72
2022/04/26 08:02:10;;;;;;;4.40;1.60;;;16.90;55.10;;;;;;5019946;28;20054;-72
2022/04/26 08:04:36;;;;;;;3.40;2.03;;;16.80;54.90;;;;;;5029304;28;20064;-72
2022/04/26 08:07:03;;;;;;;3.22;1.85;;;17.60;55.30;;;;;;5033343;28;20042;-72
2022/04/26 08:09:35;;;;;;;2.72;1.60;;;16.20;54.80;;;;;;5015962;28;20049;-73
2022/04/26 08:12:01;;;;;;;2.33;1.88;;;17.00;55.00;;;;;;5015770;28;20137;-72
2022/04/26 08:14:29;;;;;;;3.17;1.85;;;17.00;53.30;;;;;;5016102;28;20490;-72
2022/04/26 08:16:55;;;;;;;3.25;1.67;;;16.00;54.40;;;;;;5015809;28;20506;-71
2022/04/26 08:19:23;;;;;;;5.13;2.17;;;17.40;55.50;;;;;;5014989;28;20063;-72
2022/04/26 08:21:50;;;;;;;3.17;1.60;;;17.10;51.40;;;;;;5017604;28;20052;-73
2022/04/26 08:29:46;;;;;;;3.70;1.80;;;16.20;54.60;;;;;;5014814;28;20046;-73
2022/04/26 08:32:13;;;;;;;2.08;1.58;;;16.70;55.10;;;;;;5032733;28;20049;-73
2022/04/26 08:34:41;;;;;;;3.55;1.60;;;17.30;55.30;;;;;;5032647;28;20045;-72
2022/04/26 08:37:08;;;;;;;2.08;1.50;;;17.10;55.30;;;;;;5016749;28;20053;-72
2022/04/26 08:39:35;;;;;;;4.00;1.50;;;16.60;55.00;;;;;;5015372;28;20064;-74
2022/04/26 08:42:02;;;;;;;5.53;1.80;;;16.90;55.20;;;;;;5015547;28;20083;-71
2022/04/26 08:44:29;;;;;;;2.90;1.55;;;16.90;55.20;;;;;;5032025;28;20049;-70
2022/04/26 08:52:26;;;;;;;4.05;1.73;;;16.20;55.30;;;;;;5014128;28;20049;-70
2022/04/26 08:54:53;;;;;;;3.05;1.67;;;17.10;52.60;;;;;;5014775;28;20387;-70
2022/04/26 08:57:20;;;;;;;3.63;1.70;;;17.20;55.90;;;;;;5014427;28;20049;-71
2022/04/26 08:59:47;;;;;;;2.90;1.70;;;17.10;55.70;;;;;;5014633;28;20067;-70
2022/04/26 09:02:15;;;;;;;4.35;2.17;;;17.70;56.00;;;;;;5014689;28;20052;-71
2022/04/26 09:04:43;;;;;;;4.55;1.92;;;17.00;55.70;;;;;;5014872;28;20080;-71
2022/04/26 09:07:11;;;;;;;3.63;1.75;;;17.10;56.00;;;;;;5031794;28;20054;-71
2022/04/26 09:09:39;;;;;;;3.03;1.70;;;16.40;55.20;;;;;;5014442;28;20080;-70
2022/04/26 09:12:10;;;;;;;3.60;1.85;;;17.20;55.90;;;;;;5032059;28;20046;-70
2022/04/26 09:14:38;;;;;;;4.82;1.80;;;17.00;55.50;;;;;;5015045;28;20084;-71
2022/04/26 09:17:06;;;;;;;3.65;1.83;;;16.80;55.20;;;;;;5013840;28;20144;-71
2022/04/26 09:19:44;;;;;;;3.88;1.67;;;16.90;55.60;;;;;;5012406;28;20092;-71
2022/04/26 09:22:16;;;;;;;4.20;1.92;;;16.70;55.40;;;;;;5000261;28;20437;-70
2022/04/26 09:24:56;;;;;;;3.70;1.83;;;17.00;55.80;;;;;;5017769;28;20053;-71
2022/04/26 09:27:23;;;;;;;2.95;1.88;;;17.20;55.80;;;;;;5024705;28;20449;-71
2022/04/26 09:29:50;;;;;;;3.45;1.83;;;16.90;53.40;;;;;;5012629;28;20052;-71
2022/04/26 09:32:17;;;;;;;2.40;1.63;;;16.90;55.50;;;;;;5011202;28;20056;-70
2022/04/26 09:34:45;;;;;;;2.95;1.67;;;16.00;54.80;;;;;;5011261;28;20045;-70
2022/04/26 09:37:12;;;;;;;3.80;2.05;;;16.20;55.10;;;;;;5011640;28;20245;-71
2022/04/26 09:39:39;;;;;;;5.03;2.10;;;17.00;55.60;;;;;;5011620;28;20103;-72
2022/04/26 09:42:06;;;;;;;2.25;1.65;;;16.80;49.40;;;;;;5027076;28;20108;-72
2022/04/26 09:44:33;;;;;;;4.22;1.60;;;16.30;55.20;;;;;;5013230;28;20057;-72
2022/04/26 09:47:00;;;;;;;4.25;1.70;;;17.00;55.40;;;;;;5012879;28;20054;-71
2022/04/26 09:49:27;;;;;;;2.88;1.63;;;16.80;55.20;;;;;;5017564;28;20099;-72
2022/04/26 09:51:58;;;;;;;2.95;1.60;;;17.10;55.70;;;;;;5011796;28;20045;-72
2022/04/26 09:54:24;;;;;;;2.30;1.80;;;16.90;55.40;;;;;;5011928;28;20104;-72
2022/04/26 09:56:51;;;;;;;4.10;1.70;;;17.10;55.50;;;;;;5015249;28;20109;-72
2022/04/26 09:59:21;;;;;;;2.95;1.90;;;16.90;55.30;;;;;;5033999;28;20067;-72
2022/04/26 10:01:48;;;;;;;3.55;1.88;;;17.10;55.40;;;;;;5034100;28;20056;-72
2022/04/26 10:04:19;;;;;;;4.32;1.67;;;17.10;54.40;;;;;;5034050;28;20140;-72
2022/04/26 10:06:46;;;;;;;2.97;1.70;;;17.10;55.80;;;;;;5034070;28;20466;-72
2022/04/26 10:09:14;;;;;;;3.65;1.90;;;17.20;55.20;;;;;;5009346;28;20486;-72
2022/04/26 10:11:41;;;;;;;3.10;1.88;;;;;;;;;;5030860;28;20096;-72
2022/04/26 10:14:08;;;;;;;2.67;1.80;;;17.00;54.90;;;;;;5013529;28;20509;-72
2022/04/26 10:16:35;;;;;;;2.25;1.60;;;17.40;55.60;;;;;;5014087;28;20136;-72
2022/04/26 10:19:03;;;;;;;2.25;1.63;;;17.00;54.80;;;;;;5011866;28;20115;-72
2022/04/26 10:21:49;;;;;;;4.28;1.83;;;17.30;54.70;;;;;;5014037;28;20410;-72
2022/04/26 10:24:21;;;;;;;3.85;1.67;;;16.70;54.90;;;;;;5013847;28;20054;-72
2022/04/26 10:26:49;;;;;;;2.83;1.70;;;18.10;55.00;;;;;;5012394;28;20422;-72
2022/04/26 10:29:20;;;;;;;2.95;1.70;;;16.80;54.60;;;;;;5018768;28;20110;-72
2022/04/26 10:31:48;;;;;;;2.38;1.40;;;17.20;48.60;;;;;;5015039;28;20045;-72
2022/04/26 10:34:29;;;;;;;2.80;1.60;;;16.70;54.00;;;;;;5011109;28;20561;-72
2022/04/26 10:36:59;;;;;;;2.45;1.60;;;17.50;54.40;;;;;;5013449;28;20124;-71
2022/04/26 10:39:37;;;;;;;2.45;1.52;;;17.20;54.60;;;;;;5011136;28;20057;-72
2022/04/26 10:42:07;;;;;;;3.38;1.90;;;17.40;50.50;;;;;;5013547;28;20057;-72
2022/04/26 10:44:39;;;;;;;2.15;1.50;;;18.00;54.80;;;;;;5031222;28;20510;-72
2022/04/26 10:47:28;;;;;;;2.00;1.55;;;17.40;48.60;;;;;;5007620;28;20068;-72
2022/04/26 10:49:55;;;;;;;1.98;1.50;;;17.50;54.90;;;;;;5016982;28;20137;-72
2022/04/26 10:52:49;;;;;;;2.88;1.50;;;17.40;54.50;;;;;;5017033;28;20072;-72
2022/04/26 10:55:19;;;;;;;1.60;1.33;;;16.50;54.10;;;;;;5017284;28;20056;-72
2022/04/26 10:57:47;;;;;;;2.78;1.40;;;17.40;54.50;;;;;;5017087;28;20160;-73
2022/04/26 11:00:15;;;;;;;3.67;1.80;;;17.40;48.40;;;;;;5021422;28;20063;-74
2022/04/26 11:02:43;;;;;;;2.78;1.63;;;17.70;54.40;;;;;;5024776;28;20061;-73
2022/04/26 11:05:11;;;;;;;2.25;1.50;;;17.90;54.70;;;;;;5017153;28;20480;-72
2022/04/26 11:07:38;;;;;;;3.70;1.50;;;17.80;54.10;;;;;;5017395;28;20405;-74
2022/04/26 11:10:06;;;;;;;1.48;1.30;;;18.00;54.50;;;;;;5016958;28;20057;-74
2022/04/26 11:12:36;;;;;;;4.03;1.73;;;17.50;54.20;;;;;;5017097;28;20071;-73
2022/04/26 11:15:07;;;;;;;2.42;1.60;;;16.50;53.40;;;;;;5015809;28;20134;-73
2022/04/26 11:17:34;;;;;;;2.13;1.70;;;18.20;54.20;;;;;;5014657;28;20387;-73
2022/04/26 11:20:02;;;;;;;2.15;1.60;;;17.60;50.90;;;;;;5031195;28;20505;-73
2022/04/26 11:22:29;;;;;;;2.65;1.60;;;17.50;48.20;;;;;;5017184;28;20513;-74
2022/04/26 11:28:00;;;;;;;2.10;1.52;;;16.80;53.60;;;;;;5014561;28;20041;-73
2022/04/26 11:30:29;;;;;;;3.13;1.45;;;17.50;53.10;;;;;;5015649;28;20072;-73
2022/04/26 11:32:56;;;;;;;1.88;1.50;;;17.50;54.20;;;;;;5014625;28;20072;-73
2022/04/26 11:35:23;;;;;;;2.42;1.63;;;17.70;54.10;;;;;;5014677;28;20063;-73
2022/04/26 11:37:50;;;;;;;1.90;1.40;;;17.50;54.10;;;;;;5017124;28;20133;-74
2022/04/26 11:40:28;;;;;;;2.30;1.70;;;17.30;54.20;;;;;;5033138;28;20549;-73
2022/04/26 11:42:57;;;;;;;2.33;1.50;;;18.40;54.30;;;;;;5000451;28;20389;-72
2022/04/26 11:45:28;;;;;;;2.58;1.67;;;17.50;53.70;;;;;;5013151;28;20444;-71
2022/04/26 11:47:54;;;;;;;2.53;1.60;;;20.50;49.60;;;;;;5012833;28;20422;-71
2022/04/26 11:50:23;;;;;;;2.25;1.50;;;18.30;54.10;;;;;;5012011;28;20054;-71
2022/04/26 11:52:50;;;;;;;2.63;1.50;;;17.50;54.00;;;;;;5029603;28;20051;-71
2022/04/26 11:55:24;;;;;;;3.67;1.70;;;17.80;47.90;;;;;;5035991;28;20053;-71
2022/04/26 11:57:51;;;;;;;3.38;1.70;;;17.50;53.50;;;;;;5035246;28;20067;-71
2022/04/26 12:00:21;;;;;;;2.60;1.60;;;18.10;53.90;;;;;;5036176;28;20473;-71
2022/04/26 12:02:48;;;;;;;3.20;1.80;;;17.70;54.00;;;;;;5036085;28;20049;-71
2022/04/26 12:05:16;;;;;;;3.05;1.60;;;18.00;53.60;;;;;;5035849;28;20502;-71
2022/04/26 12:07:43;;;;;;;3.88;1.63;;;18.20;53.70;;;;;;5034368;28;20061;-71
2022/04/26 12:10:26;;;;;;;3.63;1.75;;;18.10;53.90;;;;;;5035860;28;20428;-71
2022/04/26 12:13:01;;;;;;;3.35;1.52;;;17.80;54.90;;;;;;5053370;28;20056;-71
2022/04/26 12:15:30;;;;;;;2.10;1.50;;;18.10;53.40;;;;;;5035165;28;20048;-71
2022/04/26 12:18:11;;;;;;;2.65;1.60;;;18.00;53.20;;;;;;5035684;28;20049;-70
2022/04/26 12:20:38;;;;;;;3.58;1.70;;;18.30;53.60;;;;;;5035503;28;20052;-71
2022/04/26 12:23:06;;;;;;;2.20;1.60;;;18.00;53.70;;;;;;5035342;28;20053;-71
2022/04/26 12:25:33;;;;;;;1.70;1.40;;;18.30;53.30;;;;;;5032532;28;20061;-71
2022/04/26 12:28:05;;;;;;;3.45;1.63;;;17.90;48.80;;;;;;5035517;28;20056;-71
2022/04/26 12:30:34;;;;;;;2.72;1.75;;;18.20;47.80;;;;;;5052808;28;20494;-71
2022/04/26 12:33:01;;;;;;;2.50;1.65;;;18.00;53.50;;;;;;5035352;28;20049;-71
2022/04/26 12:35:27;;;;;;;5.38;1.85;;;17.90;53.30;;;;;;5052892;28;20056;-71
2022/04/26 12:38:05;;;;;;;2.35;1.38;;;18.30;53.60;;;;;;5052862;28;20072;-71
2022/04/26 12:40:32;;;;;;;2.72;1.75;;;18.10;53.40;;;;;;5051007;28;20048;-71
2022/04/26 12:42:58;;;;;;;1.85;1.45;;;18.10;53.70;;;;;;5035100;28;20049;-71
2022/04/26 12:45:25;;;;;;;2.58;1.60;;;18.00;53.40;;;;;;5035100;28;20063;-71
2022/04/26 12:50:50;;;;;;;1.98;1.38;;;18.00;53.30;;;;;;5034576;28;20048;-71
2022/04/26 12:53:24;;;;;;;3.97;1.50;;;18.30;53.80;;;;;;5052803;28;20080;-71
2022/04/26 12:55:51;;;;;;;3.38;1.80;;;;;;;;;;5051078;28;20052;-71
2022/04/26 12:58:18;;;;;;;1.92;1.52;;;17.80;53.20;;;;;;5052534;28;20056;-71
2022/04/26 13:00:46;;;;;;;2.42;1.50;;;18.50;54.00;;;;;;5034607;28;20469;-71
2022/04/26 13:03:17;;;;;;;2.80;1.50;;;18.20;48.10;;;;;;5034682;28;20540;-71
2022/04/26 13:05:47;;;;;;;2.67;1.60;;;17.80;53.10;;;;;;5034547;28;20115;-71
2022/04/26 13:08:14;;;;;;;2.22;1.75;;;18.20;53.50;;;;;;5028115;28;20579;-71
2022/04/26 13:10:41;;;;;;;3.22;1.48;;;17.80;53.10;;;;;;5011901;28;20050;-71
2022/04/26 13:13:08;;;;;;;1.98;1.52;;;18.30;52.40;;;;;;5028619;28;20514;-71
2022/04/26 13:15:35;;;;;;;2.72;1.50;;;18.40;53.70;;;;;;5034573;28;20052;-70
2022/04/26 13:18:03;;;;;;;2.58;1.70;;;18.50;53.80;;;;;;5014605;28;20140;-71
2022/04/26 13:20:32;;;;;;;2.92;1.67;;;17.80;53.10;;;;;;5018469;28;20049;-70
2022/04/26 13:22:58;;;;;;;3.17;1.63;;;18.90;53.90;;;;;;5031741;28;20060;-71
2022/04/26 13:25:26;;;;;;;3.47;1.70;;;17.40;52.90;;;;;;5023765;28;20042;-71
2022/04/26 13:27:53;;;;;;;3.85;1.88;;;18.50;53.80;;;;;;5014376;28;20056;-70
2022/04/26 13:30:20;;;;;;;2.30;1.60;;;18.30;53.40;;;;;;5014099;28;20413;-71
2022/04/26 13:32:47;;;;;;;2.85;1.63;;;17.90;53.10;;;;;;5013850;28;20059;-71
2022/04/26 13:35:14;;;;;;;3.88;1.88;;;17.50;53.10;;;;;;5031568;28;20053;-71
2022/04/26 13:37:43;;;;;;;2.10;1.60;;;18.30;53.40;;;;;;5029459;28;20052;-71
2022/04/26 13:40:11;;;;;;;2.95;1.50;;;18.10;53.20;;;;;;5014233;28;20080;-71
2022/04/26 13:42:38;;;;;;;1.98;1.65;;;18.00;53.60;;;;;;5014123;28;20053;-70
2022/04/26 13:45:06;;;;;;;3.38;1.60;;;17.90;52.90;;;;;;5003073;28;20498;-71
2022/04/26 13:47:34;;;;;;;3.45;1.60;;;18.10;53.40;;;;;;5031742;28;20042;-70
2022/04/26 13:50:01;;;;;;;3.92;1.80;;;18.30;53.40;;;;;;5013874;28;20053;-71
2022/04/26 13:52:27;;;;;;;3.45;1.60;;;18.50;53.70;;;;;;5013859;28;20053;-71
2022/04/26 13:54:56;;;;;;;2.45;1.60;;;18.10;53.60;;;;;;5013810;28;20055;-71
2022/04/26 13:57:23;;;;;;;2.63;1.65;;;18.00;48.10;;;;;;5032061;28;20060;-71
2022/04/26 13:59:49;;;;;;;2.60;1.70;;;17.80;53.20;;;;;;5014015;28;20049;-71
2022/04/26 14:02:18;;;;;;;2.15;1.60;;;18.10;53.20;;;;;;5014008;28;20061;-72
2022/04/26 14:04:47;;;;;;;1.88;1.50;;;18.00;53.50;;;;;;5031684;28;20508;-71
2022/04/26 14:07:14;;;;;;;2.95;1.70;;;18.50;53.60;;;;;;5032923;28;20053;-71
2022/04/26 14:09:40;;;;;;;4.30;1.90;;;17.80;53.60;;;;;;5034001;28;20049;-72
2022/04/26 14:12:09;;;;;;;3.47;1.60;;;18.70;54.10;;;;;;5033988;28;20053;-72
2022/04/26 14:22:49;;;;;;;1.90;1.58;;;17.70;52.50;;;;;;5023076;28;20049;-72
2022/04/26 14:25:16;;;;;;;2.35;1.67;;;17.60;53.30;;;;;;5036274;28;20057;-72
2022/04/26 14:27:45;;;;;;;2.83;1.52;;;17.20;53.00;;;;;;5037918;28;20045;-72
2022/04/26 14:30:13;;;;;;;2.08;1.50;;;18.00;53.50;;;;;;5055218;28;20052;-72
2022/04/26 14:32:40;;;;;;;3.13;1.85;;;17.90;53.50;;;;;;5055286;28;20060;-72
2022/04/26 14:35:08;;;;;;;2.47;1.60;;;17.80;53.10;;;;;;5037258;28;20057;-72
2022/04/26 14:37:35;;;;;;;2.45;1.60;;;17.80;53.00;;;;;;5024098;28;20115;-72
2022/04/26 14:40:03;;;;;;;3.40;1.75;;;17.80;53.20;;;;;;5028590;28;20059;-73
2022/04/26 14:42:30;;;;;;;2.72;1.50;;;18.60;53.90;;;;;;5036053;28;20061;-71
2022/04/26 14:44:58;;;;;;;3.28;1.50;;;17.90;53.70;;;;;;5014101;28;20050;-71
2022/04/26 14:47:26;;;;;;;2.63;1.80;;;17.40;54.20;;;;;;5013912;28;20057;-70
2022/04/26 14:49:53;;;;;;;2.92;1.70;;;17.90;53.60;;;;;;5016250;28;20054;-70
2022/04/26 14:52:21;;;;;;;2.97;1.98;;;18.00;48.90;;;;;;5037025;28;20054;-70
2022/04/26 14:54:48;;;;;;;3.47;1.73;;;18.60;54.70;;;;;;5034491;28;20051;-70
2022/04/26 14:57:17;;;;;;;3.53;1.70;;;17.90;54.60;;;;;;5016761;28;20061;-70
2022/04/26 14:59:47;;;;;;;4.47;1.70;;;18.30;54.60;;;;;;5016716;28;20056;-70
2022/04/26 15:02:17;;;;;;;2.63;1.70;;;18.10;54.70;;;;;;5032440;28;20095;-70
2022/04/26 15:04:43;;;;;;;2.10;1.60;;;18.00;54.50;;;;;;5024001;28;20056;-70
2022/04/26 15:07:10;;;;;;;2.25;1.58;;;18.00;54.10;;;;;;5054474;28;20580;-70
2022/04/26 15:09:51;;;;;;;2.83;1.98;;;18.60;54.40;;;;;;5036684;28;20053;-70
2022/04/26 15:17:49;;;;;;;3.00;1.80;;;17.40;53.60;;;;;;5036783;28;20494;-70
2022/04/26 15:20:17;;;;;;;2.78;1.80;;;17.70;53.90;;;;;;5052541;28;20128;-73
2022/04/26 15:22:44;;;;;;;2.70;1.90;;;17.90;55.20;;;;;;5053145;28;20053;-73
2022/04/26 15:25:11;;;;;;;2.00;1.58;;;17.80;48.80;;;;;;5027642;28;20061;-72
2022/04/26 15:27:38;;;;;;;2.65;2.05;;;17.90;54.00;;;;;;5013440;28;20050;-72
2022/04/26 15:30:06;;;;;;;3.15;1.90;;;18.00;53.80;;;;;;5013329;28;20085;-72
2022/04/26 15:32:33;;;;;;;3.72;1.83;;;17.50;53.40;;;;;;5015199;28;20049;-72
2022/04/26 15:35:01;;;;;;;3.35;2.17;;;17.80;53.70;;;;;;5015763;28;20103;-71
2022/04/26 15:37:29;;;;;;;2.95;1.83;;;18.10;54.10;;;;;;5017572;28;20124;-72
2022/04/26 15:39:56;;;;;;;4.35;1.90;;;17.50;54.00;;;;;;5033423;28;20406;-72
2022/04/26 15:42:23;;;;;;;3.95;1.80;;;16.90;53.70;;;;;;5016127;28;20053;-72
2022/04/26 15:44:50;;;;;;;5.47;1.90;;;17.80;54.30;;;;;;5033478;28;20125;-72
2022/04/26 15:47:17;;;;;;;2.08;1.70;;;18.50;54.90;;;;;;5013556;28;20049;-72
2022/04/26 15:49:44;;;;;;;4.20;1.92;;;17.80;54.40;;;;;;5020773;28;20038;-72
2022/04/26 15:52:13;;;;;;;2.78;1.90;;;18.30;55.00;;;;;;5017522;28;20052;-72
2022/04/26 15:54:41;;;;;;;2.90;1.90;;;18.60;54.90;;;;;;5012308;28;20479;-72
2022/04/26 15:57:10;;;;;;;2.45;1.80;;;16.90;53.60;;;;;;5013002;28;20533;-72
2022/04/26 15:59:36;;;;;;;2.75;1.80;;;18.50;54.60;;;;;;5012524;28;20054;-72
2022/04/26 16:02:04;;;;;;;3.97;1.92;;;17.70;49.00;;;;;;5030379;28;20045;-72
2022/04/26 16:04:30;;;;;;;4.30;2.20;;;18.30;54.50;;;;;;5033668;28;20053;-72
2022/04/26 16:06:59;;;;;;;5.43;2.15;;;17.60;53.90;;;;;;5033631;28;20049;-72
2022/04/26 16:20:30;;;;;;;7.97;2.08;;;17.50;54.70;;;;;;5015522;28;20061;-72
2022/04/26 16:22:58;;;;;;;3.95;1.98;;;17.60;54.20;;;;;;5033846;28;20060;-72
2022/04/26 16:25:26;;;;;;;4.55;1.80;;;16.80;48.90;;;;;;5015813;28;20290;-72
2022/04/26 16:27:53;;;;;;;2.60;2.08;;;17.50;54.00;;;;;;5015798;28;20055;-72
2022/04/26 16:30:22;;;;;;;3.35;2.00;;;17.80;53.90;;;;;;5018449;28;20141;-72
2022/04/26 16:32:49;;;;;;;3.35;2.17;;;17.60;53.40;;;;;;5032122;28;20057;-72
2022/04/26 16:35:17;;;;;;;3.03;1.90;;;17.20;53.90;;;;;;5033025;28;20053;-72
2022/04/26 16:37:45;;;;;;;2.75;1.95;;;17.70;54.30;;;;;;5019896;28;20103;-75
2022/04/26 16:40:12;;;;;;;2.65;1.90;;;17.20;54.10;;;;;;5015290;28;20057;-76
2022/04/26 16:42:40;;;;;;;4.18;2.00;;;17.60;54.30;;;;;;5032893;28;20092;-74
2022/04/26 16:45:08;;;;;;;3.70;2.13;;;17.40;54.30;;;;;;5014723;28;20049;-74
2022/04/26 16:47:34;;;;;;;3.47;1.75;;;17.60;54.10;;;;;;5015560;28;20061;-75
2022/04/26 16:50:01;;;;;;;2.60;1.80;;;17.70;54.60;;;;;;5015249;28;20060;-74
2022/04/26 16:52:28;;;;;;;3.22;1.90;;;17.50;54.20;;;;;;5018531;28;20045;-75
2022/04/26 16:54:55;;;;;;;2.63;1.85;;;17.40;54.40;;;;;;5034064;28;20593;-74
2022/04/26 16:57:21;;;;;;;4.03;2.08;;;17.80;54.70;;;;;;5035054;28;20079;-74
2022/04/26 16:59:49;;;;;;;3.20;1.88;;;17.40;54.50;;;;;;5034713;28;20055;-74
2022/04/26 17:02:16;;;;;;;4.25;2.10;;;16.60;54.70;;;;;;5015174;28;20049;-75
2022/04/26 17:04:43;;;;;;;3.67;1.90;;;18.10;54.90;;;;;;5032116;28;20052;-74
2022/04/26 17:07:10;;;;;;;2.95;2.05;;;17.20;54.50;;;;;;5036835;28;20144;-74
2022/04/26 17:09:37;;;;;;;3.17;2.10;;;17.30;54.50;;;;;;5018115;28;20049;-74
2022/04/26 17:12:05;;;;;;;3.33;2.10;;;16.40;53.70;;;;;;5014582;28;20128;-73
2022/04/26 17:14:32;;;;;;;3.35;2.05;;;16.50;54.50;;;;;;5014403;28;20049;-74
2022/04/26 17:17:00;;;;;;;2.78;1.90;;;17.30;54.50;;;;;;5032093;28;20482;-75